ETH501 KIAD-HAAB
Flight info
| Callsign | ETH501 |
|---|---|
| Flight time | N/A |
| Altitude | 33000 |
| Route | WOOLY2 AGARD DCT DONIL DCT CORNE B24 LYNUS DCT LARGE DCT JENYY DCT DOVEY/M084F330 DCT 44N050W 46N040W 48N030W 48N020W DCT BUNAV UN536 TIVLU/N0488F330 DCT GALOF DCT CNA DCT LERGA DCT TOZOT DCT BODRU DCT DOKAR DCT SUNEV DCT KONUT DCT NAXES DCT BELIX/N0489F350 DCT SALUN N705 BOPIX N710 TAKRI P751 TOMRU DCT KSL/N0500F360 DCT ALRAP/N0496F370 T124 AMUDO AMUDO1A |
| Aircraft | A35K/H-SDE2E3GHIJ3J4J5LM1ORWXY/LB1D1 |
Departure
| Time | N/A |
|---|---|
| Airport | Washington Dulles International Airport (KIAD) |
Arrival
| Time | 2026-04-27 18:18 |
|---|---|
| Airport | Addis Ababa Bole International Airport (HAAB) |
| Time | Latitude | Longitude | Altitude | Speed | Heading |
|---|---|---|---|---|---|
| 2026-04-27 17:09 | 16.67605 | 36.33564 | 37268 ft | 501 kts | 182° |
| 2026-04-27 17:10 | 16.64163 | 36.33569 | 37591 ft | 499 kts | 182° |
| 2026-04-27 17:10 | 16.60698 | 36.33574 | 37835 ft | 498 kts | 182° |
| 2026-04-27 17:10 | 16.57236 | 36.33578 | 38045 ft | 497 kts | 182° |
| 2026-04-27 17:10 | 16.53774 | 36.33582 | 38262 ft | 497 kts | 182° |
| 2026-04-27 17:11 | 16.50323 | 36.33585 | 38463 ft | 496 kts | 182° |
| 2026-04-27 17:11 | 16.43428 | 36.33594 | 38748 ft | 496 kts | 182° |
| 2026-04-27 17:11 | 16.39972 | 36.33597 | 38788 ft | 498 kts | 182° |
| 2026-04-27 17:12 | 16.29509 | 36.33611 | 38786 ft | 501 kts | 182° |
| 2026-04-27 17:13 | 16.22531 | 36.33621 | 38781 ft | 501 kts | 182° |
| 2026-04-27 17:13 | 16.15554 | 36.33630 | 38776 ft | 501 kts | 182° |
| 2026-04-27 17:14 | 16.08569 | 36.33638 | 38779 ft | 502 kts | 182° |
| 2026-04-27 17:14 | 16.01628 | 36.33646 | 38781 ft | 502 kts | 181° |
| 2026-04-27 17:15 | 15.94640 | 36.33655 | 38785 ft | 503 kts | 181° |
| 2026-04-27 17:15 | 15.87643 | 36.33664 | 38781 ft | 503 kts | 181° |
| 2026-04-27 17:16 | 15.80650 | 36.33672 | 38780 ft | 502 kts | 181° |
| 2026-04-27 17:16 | 15.73661 | 36.33681 | 38783 ft | 502 kts | 181° |
| 2026-04-27 17:17 | 15.66664 | 36.33689 | 38787 ft | 502 kts | 181° |
| 2026-04-27 17:17 | 15.59671 | 36.33698 | 38789 ft | 502 kts | 181° |
| 2026-04-27 17:18 | 15.49186 | 36.33711 | 38784 ft | 502 kts | 181° |
| 2026-04-27 17:18 | 15.42194 | 36.33719 | 38788 ft | 502 kts | 181° |
| 2026-04-27 17:19 | 15.35211 | 36.33572 | 38789 ft | 501 kts | 185° |
| 2026-04-27 17:19 | 15.28300 | 36.33056 | 38789 ft | 501 kts | 186° |
| 2026-04-27 17:20 | 15.21343 | 36.32530 | 38790 ft | 501 kts | 185° |
| 2026-04-27 17:20 | 15.14379 | 36.32065 | 38787 ft | 501 kts | 185° |
| 2026-04-27 17:21 | 15.07414 | 36.31631 | 38785 ft | 501 kts | 185° |
| 2026-04-27 17:21 | 15.00448 | 36.31201 | 38797 ft | 501 kts | 185° |
| 2026-04-27 17:22 | 14.93481 | 36.30768 | 38789 ft | 501 kts | 185° |
| 2026-04-27 17:22 | 14.86561 | 36.30338 | 38790 ft | 501 kts | 184° |
| 2026-04-27 17:23 | 14.79597 | 36.29904 | 38791 ft | 501 kts | 184° |
| 2026-04-27 17:23 | 14.72620 | 36.29471 | 38797 ft | 501 kts | 184° |
| 2026-04-27 17:24 | 14.65650 | 36.29038 | 38800 ft | 501 kts | 184° |
| 2026-04-27 17:24 | 14.58686 | 36.28605 | 38801 ft | 502 kts | 184° |
| 2026-04-27 17:25 | 14.51712 | 36.28172 | 38804 ft | 502 kts | 184° |
| 2026-04-27 17:25 | 14.44781 | 36.27742 | 38817 ft | 502 kts | 184° |
| 2026-04-27 17:26 | 14.37801 | 36.27309 | 38810 ft | 502 kts | 184° |
| 2026-04-27 17:26 | 14.30821 | 36.26876 | 38808 ft | 503 kts | 184° |
| 2026-04-27 17:27 | 14.23828 | 36.26443 | 38808 ft | 503 kts | 184° |
| 2026-04-27 17:27 | 14.16831 | 36.26010 | 38815 ft | 505 kts | 184° |
| 2026-04-27 17:28 | 14.09859 | 36.25580 | 38818 ft | 506 kts | 184° |
| 2026-04-27 17:29 | 13.99307 | 36.24929 | 38817 ft | 506 kts | 184° |
| 2026-04-27 17:29 | 13.92261 | 36.24493 | 38814 ft | 506 kts | 184° |
| 2026-04-27 17:30 | 13.85287 | 36.24063 | 38816 ft | 505 kts | 184° |
| 2026-04-27 17:30 | 13.74775 | 36.23414 | 38820 ft | 504 kts | 183° |
| 2026-04-27 17:31 | 13.67785 | 36.23453 | 38828 ft | 503 kts | 171° |
| 2026-04-27 17:31 | 13.61135 | 36.25540 | 38830 ft | 501 kts | 154° |
| 2026-04-27 17:32 | 13.51779 | 36.30379 | 38825 ft | 502 kts | 152° |
| 2026-04-27 17:33 | 13.45572 | 36.33691 | 38832 ft | 502 kts | 152° |
| 2026-04-27 17:33 | 13.39351 | 36.36969 | 38852 ft | 503 kts | 152° |
| 2026-04-27 17:34 | 13.33113 | 36.40231 | 38849 ft | 503 kts | 152° |
| 2026-04-27 17:34 | 13.26875 | 36.43487 | 38864 ft | 503 kts | 152° |
| 2026-04-27 17:35 | 13.20636 | 36.46746 | 38862 ft | 503 kts | 152° |
| 2026-04-27 17:35 | 13.14398 | 36.50001 | 38878 ft | 503 kts | 152° |
| 2026-04-27 17:36 | 13.08207 | 36.53228 | 38875 ft | 503 kts | 152° |
| 2026-04-27 17:36 | 13.01973 | 36.56477 | 38880 ft | 502 kts | 152° |
| 2026-04-27 17:37 | 12.95735 | 36.59728 | 38901 ft | 502 kts | 152° |
| 2026-04-27 17:37 | 12.89513 | 36.62971 | 38887 ft | 500 kts | 152° |
| 2026-04-27 17:38 | 12.83310 | 36.66206 | 38912 ft | 499 kts | 152° |
| 2026-04-27 17:38 | 12.77123 | 36.69429 | 38897 ft | 498 kts | 152° |
| 2026-04-27 17:39 | 12.70945 | 36.72649 | 38916 ft | 497 kts | 152° |
| 2026-04-27 17:39 | 12.64672 | 36.75510 | 38904 ft | 497 kts | 156° |
| 2026-04-27 17:40 | 12.58312 | 36.78260 | 38920 ft | 496 kts | 155° |
| 2026-04-27 17:40 | 12.51966 | 36.81050 | 38934 ft | 496 kts | 155° |
| 2026-04-27 17:41 | 12.45629 | 36.83848 | 38945 ft | 496 kts | 155° |
| 2026-04-27 17:41 | 12.39287 | 36.86652 | 38948 ft | 496 kts | 155° |
| 2026-04-27 17:42 | 12.32948 | 36.89454 | 38963 ft | 497 kts | 155° |
| 2026-04-27 17:42 | 12.26604 | 36.92259 | 38971 ft | 497 kts | 155° |
| 2026-04-27 17:43 | 12.20296 | 36.95045 | 38982 ft | 497 kts | 155° |
| 2026-04-27 17:43 | 12.13950 | 36.97846 | 38972 ft | 497 kts | 155° |
| 2026-04-27 17:44 | 12.07607 | 37.00645 | 38982 ft | 497 kts | 155° |
| 2026-04-27 17:44 | 12.01259 | 37.03443 | 38979 ft | 496 kts | 155° |
| 2026-04-27 17:45 | 11.94919 | 37.06241 | 38990 ft | 496 kts | 155° |
| 2026-04-27 17:45 | 11.88579 | 37.09033 | 38988 ft | 496 kts | 155° |
| 2026-04-27 17:46 | 11.82243 | 37.11822 | 38995 ft | 496 kts | 155° |
| 2026-04-27 17:46 | 11.75952 | 37.14592 | 38995 ft | 496 kts | 155° |
| 2026-04-27 17:47 | 11.69619 | 37.17377 | 39002 ft | 495 kts | 155° |
| 2026-04-27 17:47 | 11.63296 | 37.20157 | 39009 ft | 495 kts | 155° |
| 2026-04-27 17:48 | 11.56966 | 37.22939 | 39017 ft | 495 kts | 155° |
| 2026-04-27 17:48 | 11.50640 | 37.25717 | 39024 ft | 495 kts | 155° |
| 2026-04-27 17:49 | 11.44320 | 37.28492 | 39040 ft | 495 kts | 155° |
| 2026-04-27 17:49 | 11.37988 | 37.31270 | 39047 ft | 495 kts | 155° |
| 2026-04-27 17:50 | 11.31700 | 37.34028 | 39046 ft | 495 kts | 155° |
| 2026-04-27 17:50 | 11.22200 | 37.38192 | 39056 ft | 496 kts | 155° |
| 2026-04-27 17:51 | 11.15859 | 37.40970 | 39059 ft | 496 kts | 155° |
| 2026-04-27 17:51 | 11.09517 | 37.43747 | 39053 ft | 496 kts | 155° |
| 2026-04-27 17:52 | 11.03172 | 37.46524 | 39052 ft | 496 kts | 154° |
| 2026-04-27 17:52 | 10.97892 | 37.48834 | 39047 ft | 497 kts | 154° |
| 2026-04-27 17:53 | 10.90457 | 37.52085 | 39046 ft | 497 kts | 155° |
| 2026-04-27 17:53 | 10.84153 | 37.54841 | 39048 ft | 496 kts | 155° |
| 2026-04-27 17:54 | 10.77812 | 37.57611 | 39048 ft | 495 kts | 155° |
| 2026-04-27 17:54 | 10.71484 | 37.60374 | 39048 ft | 495 kts | 155° |
| 2026-04-27 17:55 | 10.66187 | 37.62686 | 39053 ft | 494 kts | 155° |
| 2026-04-27 17:55 | 10.60160 | 37.65315 | 39051 ft | 493 kts | 155° |
| 2026-04-27 17:56 | 10.53857 | 37.68063 | 39048 ft | 492 kts | 155° |
| 2026-04-27 17:56 | 10.47567 | 37.70805 | 39044 ft | 492 kts | 155° |
| 2026-04-27 17:57 | 10.41280 | 37.73544 | 39034 ft | 491 kts | 155° |
| 2026-04-27 17:57 | 10.35003 | 37.76277 | 39018 ft | 491 kts | 155° |
| 2026-04-27 17:58 | 10.28731 | 37.79008 | 39005 ft | 490 kts | 155° |
| 2026-04-27 17:58 | 10.22463 | 37.81736 | 38985 ft | 490 kts | 155° |
| 2026-04-27 17:59 | 10.16233 | 37.84446 | 38971 ft | 489 kts | 155° |
| 2026-04-27 17:59 | 10.13129 | 37.85794 | 38664 ft | 483 kts | 155° |
| 2026-04-27 17:59 | 10.10050 | 37.87132 | 38064 ft | 481 kts | 155° |
| 2026-04-27 18:00 | 10.06964 | 37.88474 | 37363 ft | 482 kts | 155° |
| 2026-04-27 18:00 | 10.03876 | 37.89817 | 36649 ft | 484 kts | 155° |
| 2026-04-27 18:00 | 10.00776 | 37.91164 | 35933 ft | 487 kts | 155° |
| 2026-04-27 18:00 | 9.97652 | 37.92521 | 35211 ft | 490 kts | 155° |
| 2026-04-27 18:01 | 9.94506 | 37.93887 | 34496 ft | 493 kts | 155° |
| 2026-04-27 18:01 | 9.91348 | 37.95258 | 33778 ft | 496 kts | 156° |
| 2026-04-27 18:01 | 9.88166 | 37.96635 | 33000 ft | 498 kts | 155° |
| 2026-04-27 18:01 | 9.84978 | 37.98018 | 32318 ft | 498 kts | 155° |
| 2026-04-27 18:02 | 9.81785 | 37.99405 | 31637 ft | 499 kts | 156° |
| 2026-04-27 18:02 | 9.78596 | 38.00792 | 30939 ft | 500 kts | 155° |
| 2026-04-27 18:02 | 9.75397 | 38.02178 | 30267 ft | 501 kts | 156° |
| 2026-04-27 18:02 | 9.72189 | 38.03571 | 29498 ft | 502 kts | 156° |
| 2026-04-27 18:03 | 9.68968 | 38.04967 | 28689 ft | 503 kts | 156° |
| 2026-04-27 18:03 | 9.65802 | 38.06339 | 28071 ft | 500 kts | 156° |
| 2026-04-27 18:03 | 9.62568 | 38.07740 | 27496 ft | 496 kts | 155° |
| 2026-04-27 18:03 | 9.59452 | 38.09090 | 26978 ft | 492 kts | 155° |
| 2026-04-27 18:04 | 9.56318 | 38.10444 | 26446 ft | 488 kts | 155° |
| 2026-04-27 18:04 | 9.53206 | 38.11789 | 25940 ft | 484 kts | 155° |
| 2026-04-27 18:04 | 9.50115 | 38.13124 | 25437 ft | 480 kts | 155° |
| 2026-04-27 18:04 | 9.47058 | 38.14445 | 24921 ft | 476 kts | 155° |
| 2026-04-27 18:05 | 9.44019 | 38.15758 | 24430 ft | 472 kts | 155° |
| 2026-04-27 18:05 | 9.41014 | 38.17058 | 23925 ft | 468 kts | 155° |
| 2026-04-27 18:05 | 9.38031 | 38.18351 | 23394 ft | 464 kts | 155° |
| 2026-04-27 18:05 | 9.35067 | 38.19628 | 22785 ft | 461 kts | 155° |
| 2026-04-27 18:06 | 9.32156 | 38.20884 | 21957 ft | 447 kts | 155° |
| 2026-04-27 18:06 | 9.29318 | 38.22108 | 20602 ft | 442 kts | 155° |
| 2026-04-27 18:06 | 9.26495 | 38.23330 | 19264 ft | 439 kts | 155° |
| 2026-04-27 18:06 | 9.23698 | 38.24537 | 18062 ft | 438 kts | 155° |
| 2026-04-27 18:07 | 9.20870 | 38.25757 | 17273 ft | 441 kts | 156° |
| 2026-04-27 18:07 | 9.18146 | 38.26932 | 16722 ft | 420 kts | 156° |
| 2026-04-27 18:07 | 9.15474 | 38.28083 | 15781 ft | 420 kts | 156° |
| 2026-04-27 18:07 | 9.12762 | 38.29250 | 15341 ft | 414 kts | 156° |
| 2026-04-27 18:08 | 9.10204 | 38.30350 | 15066 ft | 392 kts | 156° |
| 2026-04-27 18:08 | 9.07761 | 38.31402 | 14714 ft | 369 kts | 156° |
| 2026-04-27 18:08 | 9.05463 | 38.32392 | 14383 ft | 349 kts | 156° |
| 2026-04-27 18:08 | 9.03289 | 38.33329 | 14144 ft | 334 kts | 156° |
| 2026-04-27 18:09 | 9.01189 | 38.34236 | 14016 ft | 323 kts | 156° |
| 2026-04-27 18:09 | 8.99159 | 38.35112 | 13910 ft | 312 kts | 156° |
| 2026-04-27 18:09 | 8.97191 | 38.35960 | 13799 ft | 301 kts | 156° |
| 2026-04-27 18:09 | 8.95295 | 38.36776 | 13666 ft | 291 kts | 155° |
| 2026-04-27 18:10 | 8.93455 | 38.37569 | 13533 ft | 288 kts | 155° |
| 2026-04-27 18:10 | 8.91614 | 38.38363 | 13282 ft | 287 kts | 155° |
| 2026-04-27 18:10 | 8.89858 | 38.39291 | 13023 ft | 284 kts | 141° |
| 2026-04-27 18:10 | 8.88617 | 38.40778 | 12781 ft | 275 kts | 112° |
| 2026-04-27 18:11 | 8.88163 | 38.42626 | 12547 ft | 270 kts | 93° |
| 2026-04-27 18:11 | 8.88068 | 38.43880 | 12363 ft | 270 kts | 91° |
| 2026-04-27 18:11 | 8.88056 | 38.44076 | 12343 ft | 270 kts | 91° |
| 2026-04-27 18:11 | 8.87962 | 38.45852 | 12122 ft | 270 kts | 91° |
| 2026-04-27 18:12 | 8.87855 | 38.47742 | 11883 ft | 269 kts | 92° |
| 2026-04-27 18:12 | 8.87740 | 38.49621 | 11744 ft | 267 kts | 92° |
| 2026-04-27 18:12 | 8.87621 | 38.51493 | 11626 ft | 267 kts | 92° |
| 2026-04-27 18:12 | 8.87498 | 38.53365 | 11504 ft | 266 kts | 92° |
| 2026-04-27 18:13 | 8.87375 | 38.55230 | 11387 ft | 265 kts | 92° |
| 2026-04-27 18:13 | 8.87251 | 38.57086 | 11260 ft | 265 kts | 92° |
| 2026-04-27 18:13 | 8.87128 | 38.58942 | 11139 ft | 264 kts | 92° |
| 2026-04-27 18:13 | 8.87323 | 38.60763 | 10998 ft | 261 kts | 66° |
| 2026-04-27 18:14 | 8.88387 | 38.62190 | 10887 ft | 252 kts | 38° |
| 2026-04-27 18:14 | 8.89773 | 38.63205 | 10840 ft | 238 kts | 34° |
| 2026-04-27 18:14 | 8.91098 | 38.64120 | 10753 ft | 224 kts | 34° |
| 2026-04-27 18:14 | 8.92293 | 38.65029 | 10540 ft | 209 kts | 43° |
| 2026-04-27 18:15 | 8.93134 | 38.66198 | 10156 ft | 205 kts | 61° |
| 2026-04-27 18:15 | 8.93791 | 38.67477 | 9978 ft | 206 kts | 64° |
| 2026-04-27 18:15 | 8.94395 | 38.68746 | 9786 ft | 193 kts | 69° |
| 2026-04-27 18:15 | 8.94783 | 38.69998 | 9618 ft | 181 kts | 75° |
| 2026-04-27 18:16 | 8.95148 | 38.71188 | 9471 ft | 174 kts | 73° |
| 2026-04-27 18:16 | 8.95483 | 38.72351 | 9254 ft | 173 kts | 75° |
| 2026-04-27 18:16 | 8.95793 | 38.73535 | 8837 ft | 176 kts | 75° |
| 2026-04-27 18:16 | 8.96116 | 38.74714 | 8529 ft | 171 kts | 75° |
| 2026-04-27 18:17 | 8.96476 | 38.75845 | 8187 ft | 167 kts | 72° |
| 2026-04-27 18:17 | 8.96821 | 38.76951 | 7986 ft | 165 kts | 75° |
| 2026-04-27 18:17 | 8.97138 | 38.78068 | 7767 ft | 168 kts | 75° |
| 2026-04-27 18:17 | 8.97481 | 38.79213 | 7634 ft | 167 kts | 75° |
| 2026-04-27 18:18 | 8.97777 | 38.80218 | 7629 ft | 119 kts | 73° |
| 2026-04-27 18:18 | 8.97947 | 38.80794 | 7627 ft | 52 kts | 73° |
| 2026-04-27 18:18 | 8.98007 | 38.80996 | 7624 ft | 24 kts | 73° |
| 2026-04-27 18:18 | 8.98056 | 38.81147 | 7625 ft | 21 kts | 65° |
| 2026-04-27 18:19 | 8.98143 | 38.81256 | 7625 ft | 19 kts | 40° |
| 2026-04-27 18:19 | 8.98246 | 38.81309 | 7626 ft | 15 kts | 341° |
| 2026-04-27 18:19 | 8.98268 | 38.81235 | 7626 ft | 11 kts | 260° |
| 2026-04-27 18:19 | 8.98254 | 38.81164 | 7627 ft | 10 kts | 255° |
| 2026-04-27 18:20 | 8.98235 | 38.81096 | 7627 ft | 12 kts | 255° |
| 2026-04-27 18:20 | 8.98208 | 38.80999 | 7627 ft | 17 kts | 253° |
| 2026-04-27 18:20 | 8.98168 | 38.80867 | 7626 ft | 22 kts | 253° |
| 2026-04-27 18:20 | 8.98119 | 38.80709 | 7627 ft | 24 kts | 254° |
| 2026-04-27 18:21 | 8.98072 | 38.80546 | 7627 ft | 25 kts | 253° |
| 2026-04-27 18:21 | 8.98023 | 38.80378 | 7629 ft | 25 kts | 253° |
| 2026-04-27 18:21 | 8.97986 | 38.80248 | 7630 ft | 12 kts | 258° |
| 2026-04-27 18:21 | 8.98016 | 38.80174 | 7628 ft | 13 kts | 324° |
| 2026-04-27 18:22 | 8.98099 | 38.80142 | 7627 ft | 13 kts | 343° |
| 2026-04-27 18:22 | 8.98181 | 38.80118 | 7627 ft | 12 kts | 345° |
| 2026-04-27 18:22 | 8.98252 | 38.80096 | 7627 ft | 9 kts | 328° |
| 2026-04-27 18:22 | 8.98275 | 38.80053 | 7627 ft | 5 kts | 274° |
| 2026-04-27 18:23 | 8.98270 | 38.80028 | 7627 ft | 3 kts | 258° |
| 2026-04-27 18:23 | 8.98266 | 38.80011 | 7627 ft | 3 kts | 258° |
| 2026-04-27 18:23 | 8.98270 | 38.79992 | 7627 ft | 2 kts | 296° |
| 2026-04-27 18:23 | 8.98283 | 38.79987 | 7627 ft | 2 kts | 345° |
| 2026-04-27 18:24 | 8.98298 | 38.79982 | 7627 ft | 2 kts | 343° |
| 2026-04-27 18:24 | 8.98316 | 38.79977 | 7627 ft | 3 kts | 344° |
| 2026-04-27 18:24 | 8.98320 | 38.79976 | 7627 ft | 0 kts | 343° |
| 2026-04-27 18:24 | 8.98321 | 38.79976 | 7627 ft | 1 kts | 343° |
| 2026-04-27 18:25 | 8.98332 | 38.79973 | 7627 ft | 0 kts | 344° |